createdAt,value
2022-08-20T00:04:22.108Z,2.40
2022-08-20T00:09:23.870Z,2.97
2022-08-20T00:14:25.568Z,4.18
2022-08-20T00:19:27.503Z,3.50
2022-08-20T00:24:29.384Z,3.28
2022-08-20T00:29:31.499Z,3.38
2022-08-20T00:34:33.268Z,2.47
2022-08-20T00:39:35.732Z,3.83
2022-08-20T00:44:43.731Z,2.75
2022-08-20T00:49:45.553Z,3.17
2022-08-20T00:54:52.214Z,8.05
2022-08-20T00:59:53.942Z,3.88
2022-08-20T01:04:56.796Z,3.38
2022-08-20T01:10:19.385Z,2.50
2022-08-20T01:15:30.698Z,2.80
2022-08-20T01:20:39.404Z,3.78
2022-08-20T01:25:46.884Z,8.02
2022-08-20T01:30:48.845Z,2.97
2022-08-20T01:35:52.789Z,3.13
2022-08-20T01:41:06.805Z,3.28
2022-08-20T01:46:10.048Z,4.70
2022-08-20T01:51:16.801Z,3.25
2022-08-20T01:56:23.619Z,4.55
2022-08-20T02:01:30.383Z,3.60
2022-08-20T02:06:36.985Z,4.32
2022-08-20T02:11:39.330Z,3.17
2022-08-20T02:16:44.392Z,3.97
2022-08-20T02:21:59.988Z,4.90
2022-08-20T02:27:01.793Z,3.42
2022-08-20T02:32:32.323Z,4.85
2022-08-20T02:37:28.273Z,3.72
2022-08-20T02:42:30.053Z,5.45
2022-08-20T02:47:32.285Z,3.58
2022-08-20T02:52:34.031Z,4.10
2022-08-20T02:57:35.932Z,4.78
2022-08-20T03:02:37.681Z,7.70
2022-08-20T03:07:48.063Z,4.13
2022-08-20T03:12:50.452Z,4.55
2022-08-20T03:17:52.383Z,4.03
2022-08-20T03:22:54.705Z,4.65
2022-08-20T03:27:57.379Z,5.35
2022-08-20T03:33:00.155Z,4.55
2022-08-20T03:38:02.180Z,4.40
2022-08-20T03:43:06.164Z,4.90
2022-08-20T03:48:11.018Z,4.85
2022-08-20T03:53:14.803Z,4.80
2022-08-20T03:58:17.414Z,4.57
2022-08-20T04:03:20.179Z,4.60
2022-08-20T04:08:26.718Z,4.78
2022-08-20T04:13:29.981Z,4.50
2022-08-20T04:18:32.916Z,4.07
2022-08-20T04:23:34.784Z,5.68
2022-08-20T04:28:36.644Z,5.53
2022-08-20T04:33:38.323Z,6.20
2022-08-20T04:38:47.757Z,4.53
2022-08-20T04:43:54.271Z,6.25
2022-08-20T04:48:57.446Z,5.25
2022-08-20T04:53:59.629Z,5.35
2022-08-20T04:59:02.045Z,4.95
2022-08-20T05:04:03.983Z,4.95
2022-08-20T05:09:05.742Z,5.65
2022-08-20T05:14:09.841Z,4.57
2022-08-20T05:19:13.593Z,5.57
2022-08-20T05:24:16.451Z,5.20
2022-08-20T05:29:18.152Z,5.88
2022-08-20T05:34:20.104Z,5.78
2022-08-20T05:39:23.033Z,5.72
2022-08-20T05:44:24.797Z,6.18
2022-08-20T05:49:26.729Z,5.30
2022-08-20T05:54:28.501Z,6.50
2022-08-20T05:59:30.187Z,7.57
2022-08-20T06:04:32.075Z,7.53
2022-08-20T06:09:35.096Z,10.43
2022-08-20T06:14:37.172Z,10.50
2022-08-20T06:19:39.357Z,10.40
2022-08-20T06:24:43.790Z,12.30
2022-08-20T06:29:45.782Z,14.13
2022-08-20T06:34:50.409Z,11.57
2022-08-20T06:39:53.393Z,14.60
2022-08-20T06:44:55.568Z,15.77
2022-08-20T06:49:57.501Z,17.02
2022-08-20T06:54:59.329Z,14.75
2022-08-20T07:00:04.831Z,15.27
2022-08-20T07:05:07.412Z,15.27
2022-08-20T07:10:12.524Z,13.75
2022-08-20T07:15:15.094Z,14.93
2022-08-20T07:20:16.907Z,15.60
2022-08-20T07:25:21.556Z,13.05
2022-08-20T07:30:56.641Z,13.63
2022-08-20T07:36:01.960Z,12.48
2022-08-20T07:41:10.100Z,10.63
2022-08-20T07:46:13.753Z,12.60
2022-08-20T07:51:17.764Z,11.73
2022-08-20T07:56:22.699Z,11.35
2022-08-20T08:01:30.271Z,10.07
2022-08-20T08:06:32.232Z,12.02
2022-08-20T08:11:38.067Z,8.27
2022-08-20T08:16:40.032Z,10.32
2022-08-20T08:21:44.193Z,7.63
2022-08-20T08:26:45.982Z,7.63
2022-08-20T08:31:47.885Z,8.60
2022-08-20T08:36:50.984Z,9.70
2022-08-20T08:41:52.921Z,8.43
2022-08-20T08:47:18.279Z,9.73
2022-08-20T08:52:31.822Z,7.28
2022-08-20T08:57:33.705Z,7.55
2022-08-20T09:02:38.708Z,9.00
2022-08-20T09:07:45.225Z,7.07
2022-08-20T09:12:47.864Z,7.10
2022-08-20T09:17:49.993Z,6.10
2022-08-20T09:22:51.974Z,7.22
2022-08-20T09:27:53.828Z,6.97
2022-08-20T09:32:59.639Z,8.07
2022-08-20T09:38:01.825Z,8.90
2022-08-20T09:43:06.809Z,8.98
2022-08-20T09:48:10.326Z,10.57
2022-08-20T09:53:13.315Z,10.10
2022-08-20T09:58:21.731Z,8.40
2022-08-20T10:03:23.548Z,7.70
2022-08-20T10:08:25.693Z,7.10
2022-08-20T10:13:30.488Z,7.80
2022-08-20T10:18:34.136Z,7.30
2022-08-20T10:23:35.912Z,6.60
2022-08-20T10:28:37.998Z,5.68
2022-08-20T10:33:41.197Z,6.75
2022-08-20T10:38:44.448Z,8.75
2022-08-20T10:43:46.335Z,6.43
2022-08-20T10:48:48.048Z,8.07
2022-08-20T10:53:49.755Z,6.70
2022-08-20T10:58:51.556Z,10.25
2022-08-20T11:03:53.212Z,8.45
2022-08-20T11:08:56.817Z,7.38
2022-08-20T11:13:58.921Z,7.78
2022-08-20T11:19:00.744Z,6.28
2022-08-20T11:24:03.221Z,8.23
2022-08-20T11:29:05.087Z,9.45
2022-08-20T11:34:10.735Z,7.95
2022-08-20T11:39:14.473Z,9.15
2022-08-20T11:44:20.756Z,6.65
2022-08-20T11:49:23.509Z,7.93
2022-08-20T11:54:25.515Z,6.93
2022-08-20T11:59:29.190Z,5.20
2022-08-20T12:04:32.323Z,4.90
2022-08-20T12:09:35.697Z,4.05
2022-08-20T12:14:42.312Z,5.75
2022-08-20T12:19:44.004Z,6.53
2022-08-20T12:24:46.172Z,5.82
2022-08-20T12:29:52.311Z,8.73
2022-08-20T12:34:54.945Z,5.43
2022-08-20T12:39:58.862Z,6.05
2022-08-20T12:45:01.593Z,8.05
2022-08-20T12:50:07.989Z,8.77
2022-08-20T12:55:13.040Z,8.68
2022-08-20T13:00:20.303Z,7.93
2022-08-20T13:05:23.783Z,11.65
2022-08-20T13:10:31.114Z,6.93
2022-08-20T13:15:33.496Z,7.65
2022-08-20T13:20:36.181Z,7.03
2022-08-20T13:25:37.895Z,7.93
2022-08-20T13:30:41.352Z,10.07
2022-08-20T13:35:43.251Z,9.97
2022-08-20T13:40:45.127Z,8.57
2022-08-20T13:45:50.759Z,11.13
2022-08-20T13:50:52.604Z,10.00
2022-08-20T13:55:56.665Z,9.65
2022-08-20T14:00:58.439Z,9.45
2022-08-20T14:06:01.469Z,11.05
2022-08-20T14:11:03.695Z,13.43
2022-08-20T14:16:06.171Z,9.48
2022-08-20T14:21:23.420Z,9.43
2022-08-20T14:26:25.234Z,11.13
2022-08-20T14:31:27.043Z,11.68
2022-08-20T14:36:28.802Z,9.18
2022-08-20T14:41:30.565Z,9.07
2022-08-20T14:46:32.716Z,10.25
2022-08-20T14:51:34.752Z,9.85
2022-08-20T14:56:36.616Z,10.75
2022-08-20T15:01:38.426Z,10.95
2022-08-20T15:06:40.220Z,9.05
2022-08-20T15:11:42.003Z,9.73
2022-08-20T15:16:43.898Z,9.93
2022-08-20T15:21:45.928Z,8.02
2022-08-20T15:26:47.929Z,8.30
2022-08-20T15:31:49.675Z,6.80
2022-08-20T15:36:51.457Z,8.52
2022-08-20T15:41:53.190Z,9.73
2022-08-20T15:46:55.013Z,9.13
2022-08-20T15:51:56.752Z,9.50
2022-08-20T15:57:33.661Z,11.00
2022-08-20T16:03:09.672Z,5.13
2022-08-20T16:08:27.150Z,7.50
2022-08-20T16:13:49.493Z,6.53
2022-08-20T16:18:53.708Z,7.20
2022-08-20T16:23:56.268Z,6.97
2022-08-20T16:29:11.686Z,9.05
2022-08-20T16:34:33.913Z,5.85
2022-08-20T16:39:59.568Z,6.95
2022-08-20T16:45:04.141Z,6.60
2022-08-20T16:50:11.025Z,6.78
2022-08-20T16:55:14.165Z,6.55
2022-08-20T17:00:24.802Z,8.00
2022-08-20T17:05:43.923Z,8.70
2022-08-20T17:10:58.441Z,8.45
2022-08-20T17:16:05.306Z,10.13
2022-08-20T17:21:07.015Z,9.55
2022-08-20T17:26:41.486Z,6.78
2022-08-20T17:31:50.330Z,5.53
2022-08-20T17:36:53.743Z,7.65
2022-08-20T17:42:06.865Z,7.00
2022-08-20T17:47:16.208Z,8.63
2022-08-20T17:52:27.788Z,10.20
2022-08-20T17:57:37.876Z,5.93
2022-08-20T18:02:39.975Z,9.35
2022-08-20T18:08:06.911Z,9.00
2022-08-20T18:13:18.302Z,7.65
2022-08-20T18:18:35.646Z,6.18
2022-08-20T18:24:06.785Z,6.28
2022-08-20T18:29:17.433Z,7.40
2022-08-20T18:34:33.467Z,10.65
2022-08-20T18:39:42.077Z,6.50
2022-08-20T18:44:47.582Z,9.30
2022-08-20T18:50:28.405Z,6.63
2022-08-20T18:55:36.927Z,8.70
2022-08-20T19:00:43.690Z,6.20
2022-08-20T19:05:45.454Z,10.27
2022-08-20T19:10:56.146Z,10.10
2022-08-20T19:16:07.880Z,8.80
2022-08-20T19:21:15.577Z,12.63
2022-08-20T19:26:25.125Z,8.60
2022-08-20T19:31:30.631Z,13.63
2022-08-20T19:36:33.045Z,9.70
2022-08-20T19:41:47.299Z,8.50
2022-08-20T19:46:50.035Z,11.00
2022-08-20T19:52:35.849Z,8.43
2022-08-20T19:57:37.576Z,14.48
2022-08-20T20:02:41.471Z,14.20
2022-08-20T20:07:48.680Z,8.23
2022-08-20T20:12:50.507Z,10.18
2022-08-20T20:17:53.356Z,10.98
2022-08-20T20:23:00.945Z,11.30
2022-08-20T20:28:19.609Z,9.80
2022-08-20T20:33:31.914Z,8.13
2022-08-20T20:38:34.984Z,10.88
2022-08-20T20:43:42.741Z,11.50
2022-08-20T20:48:48.479Z,11.95
2022-08-20T20:53:54.852Z,12.18
2022-08-20T20:59:01.324Z,12.40
2022-08-20T21:04:07.292Z,7.78
2022-08-20T21:09:11.146Z,9.73
2022-08-20T21:14:13.206Z,9.25
2022-08-20T21:19:15.674Z,7.80
2022-08-20T21:24:17.571Z,6.57
2022-08-20T21:29:32.278Z,10.07
2022-08-20T21:34:34.584Z,7.75
2022-08-20T21:39:36.487Z,7.90
2022-08-20T21:44:38.449Z,8.73
2022-08-20T21:49:49.837Z,9.18
2022-08-20T21:54:51.943Z,10.90
2022-08-20T21:59:56.205Z,9.27
2022-08-20T22:04:58.977Z,9.80
2022-08-20T22:10:01.910Z,10.63
2022-08-20T22:15:07.392Z,9.40
2022-08-20T22:20:15.387Z,8.88
2022-08-20T22:25:17.277Z,7.57
2022-08-20T22:30:19.385Z,10.85
2022-08-20T22:35:22.409Z,11.13
2022-08-20T22:40:25.337Z,10.07
2022-08-20T22:45:28.379Z,9.57
2022-08-20T22:50:30.540Z,10.73
2022-08-20T22:55:32.427Z,10.10
2022-08-20T23:00:35.074Z,12.48
2022-08-20T23:05:37.932Z,9.75
2022-08-20T23:10:39.981Z,11.45
2022-08-20T23:15:45.255Z,10.88
2022-08-20T23:20:53.329Z,14.82
2022-08-20T23:26:02.469Z,13.25
2022-08-20T23:31:07.432Z,14.32
2022-08-20T23:36:11.759Z,10.15
2022-08-20T23:41:13.602Z,9.43
2022-08-20T23:46:15.977Z,10.32
2022-08-20T23:51:22.892Z,12.45
2022-08-20T23:56:26.973Z,8.57
